createdAt,value
2018-04-26T00:01:27.470Z,3.4
2018-04-26T00:11:26.819Z,3.5
2018-04-26T00:21:26.987Z,3.6
2018-04-26T00:31:27.129Z,3.7
2018-04-26T00:41:25.365Z,3.4
2018-04-26T00:51:26.369Z,3.3
2018-04-26T01:21:26.577Z,4.5
2018-04-26T01:31:26.376Z,4.2
2018-04-26T01:41:26.314Z,4.9
2018-04-26T01:51:26.160Z,4.2
2018-04-26T02:01:26.319Z,4.1
2018-04-26T02:11:26.643Z,4.0
2018-04-26T02:21:25.620Z,4.8
2018-04-26T02:31:26.419Z,4.6
2018-04-26T02:41:26.127Z,4.7
2018-04-26T02:51:26.416Z,4.8
2018-04-26T03:01:26.485Z,4.6
2018-04-26T03:11:26.381Z,4.5
2018-04-26T03:21:27.157Z,6.5
2018-04-26T03:31:25.887Z,6.9
2018-04-26T03:41:27.160Z,7.7
2018-04-26T03:51:27.333Z,7.6
2018-04-26T04:01:27.982Z,7.6
2018-04-26T04:11:25.827Z,7.3
2018-04-26T04:21:26.787Z,7.1
2018-04-26T04:31:27.249Z,7.5
2018-04-26T04:41:26.287Z,7.7
2018-04-26T04:51:25.926Z,7.2
2018-04-26T05:01:26.704Z,8.2
2018-04-26T05:12:07.177Z,8.3
2018-04-26T05:21:26.612Z,7.6
2018-04-26T05:31:26.297Z,8.1
2018-04-26T05:41:26.320Z,7.6
2018-04-26T05:51:25.976Z,8.2
2018-04-26T06:01:27.463Z,8.5
2018-04-26T06:11:26.721Z,8.6
2018-04-26T06:21:26.961Z,7.4
2018-04-26T06:31:27.763Z,7.4
2018-04-26T06:41:27.984Z,6.0
2018-04-26T06:51:27.007Z,5.3
2018-04-26T07:01:27.080Z,4.2
2018-04-26T07:11:26.393Z,4.9
2018-04-26T07:21:26.825Z,4.0
2018-04-26T07:31:26.543Z,3.9
2018-04-26T07:41:26.641Z,4.3
2018-04-26T07:51:28.065Z,4.5
2018-04-26T08:01:27.460Z,4.3
2018-04-26T08:11:25.669Z,4.1
2018-04-26T08:21:26.192Z,4.0
2018-04-26T08:31:26.415Z,4.2
2018-04-26T08:41:28.486Z,3.8
2018-04-26T08:51:26.205Z,4.1
2018-04-26T09:01:24.941Z,4.5
2018-04-26T09:11:27.918Z,5.0
2018-04-26T09:21:25.134Z,4.4
2018-04-26T09:31:27.709Z,5.8
2018-04-26T09:41:25.508Z,4.8
2018-04-26T09:51:26.283Z,3.8
2018-04-26T10:01:26.006Z,4.5
2018-04-26T10:11:27.043Z,4.2
2018-04-26T10:21:26.048Z,4.4
2018-04-26T10:31:28.359Z,4.3
2018-04-26T10:41:26.487Z,4.0
2018-04-26T10:51:27.014Z,3.2
2018-04-26T11:01:26.722Z,3.5
2018-04-26T11:11:26.915Z,4.0
2018-04-26T11:21:25.764Z,3.8
2018-04-26T11:31:26.745Z,3.9
2018-04-26T11:41:26.423Z,4.9
2018-04-26T11:51:26.412Z,5.0
2018-04-26T12:01:26.248Z,6.3
2018-04-26T12:11:26.857Z,5.7
2018-04-26T12:21:27.050Z,6.7
2018-04-26T12:31:27.564Z,6.8
2018-04-26T12:41:26.279Z,6.1
2018-04-26T12:51:26.364Z,6.7
2018-04-26T13:01:26.387Z,5.1
2018-04-26T13:11:27.496Z,5.7
2018-04-26T13:21:26.604Z,3.7
2018-04-26T13:31:25.786Z,4.6
2018-04-26T13:41:26.489Z,3.2
2018-04-26T13:51:27.624Z,4.9
2018-04-26T14:01:27.716Z,4.4
2018-04-26T14:11:26.463Z,3.7
2018-04-26T14:21:26.382Z,4.5
2018-04-26T14:31:26.604Z,4.8
2018-04-26T14:41:26.854Z,4.5
2018-04-26T14:51:26.807Z,4.1
2018-04-26T15:01:26.970Z,4.3
2018-04-26T15:11:26.779Z,3.5
2018-04-26T15:21:27.390Z,2.8
2018-04-26T15:31:26.637Z,2.5
2018-04-26T15:41:27.288Z,2.4
2018-04-26T15:51:29.232Z,2.1
2018-04-26T16:01:27.522Z,2.7
2018-04-26T16:11:26.235Z,3.5
2018-04-26T16:21:26.767Z,2.9
2018-04-26T16:31:27.272Z,3.0
2018-04-26T16:41:26.919Z,3.2
2018-04-26T16:51:26.811Z,4.0
2018-04-26T17:01:26.902Z,4.5
2018-04-26T17:11:27.272Z,5.7
2018-04-26T17:21:27.220Z,5.8
2018-04-26T17:31:26.287Z,5.8
2018-04-26T17:41:31.764Z,5.5
2018-04-26T17:51:26.807Z,4.5
2018-04-26T18:01:26.549Z,3.6
2018-04-26T18:11:26.819Z,3.9
2018-04-26T18:21:28.538Z,5.9
2018-04-26T18:31:27.329Z,7.2
2018-04-26T18:41:25.997Z,3.7
2018-04-26T18:51:26.215Z,4.1
2018-04-26T19:01:25.902Z,4.5
2018-04-26T19:11:26.879Z,3.2
2018-04-26T19:21:27.382Z,3.7
2018-04-26T19:31:26.406Z,3.3
2018-04-26T19:41:28.059Z,3.7
2018-04-26T19:51:27.327Z,3.8
2018-04-26T20:01:25.934Z,4.0
2018-04-26T20:11:26.692Z,4.4
2018-04-26T20:21:28.573Z,4.1
2018-04-26T20:31:27.373Z,4.4
2018-04-26T20:41:26.169Z,4.6
2018-04-26T20:51:27.982Z,5.3
2018-04-26T21:01:26.956Z,5.0
2018-04-26T21:11:26.567Z,5.6
2018-04-26T21:21:26.373Z,5.1
2018-04-26T21:31:26.593Z,5.3
2018-04-26T21:41:26.899Z,8.4
2018-04-26T21:51:37.284Z,9.4
2018-04-26T22:01:26.797Z,9.6
2018-04-26T22:11:27.951Z,10.5
2018-04-26T22:21:25.845Z,9.9
2018-04-26T22:31:26.767Z,9.0
2018-04-26T22:41:27.412Z,11.0
2018-04-26T22:51:26.667Z,10.7
2018-04-26T23:01:28.356Z,11.2
2018-04-26T23:11:25.870Z,12.7
2018-04-26T23:21:25.727Z,13.7
2018-04-26T23:31:26.320Z,14.9
2018-04-26T23:41:25.898Z,15.3
2018-04-26T23:51:26.509Z,15.3
